Asmara, Eritrea
Current Conditions -  °F | °C
As of 12:00 PM on Saturday 25 Oct 2014 (Local Time) from OEGN Reporting Station
Few Clouds Few Clouds  
Wind Chill: 95°   Ceiling: Unl
Heat Index: 110°   Visibility: 6mi
Dew Point: 77°   Wind: 12mph
Humidity: 56%   Direction: 220°SW
Pressure: 29.85"   Gusts: NA
Location:  15.33°N, 38.94°E
Report Text: OEGN 250900Z 22010KT 9999 FEW030 35/25 Q1011 NOSIG
Loading
Personal Weather Stations






























Interactive Weather Map
Tropical Storm Tracking
New forecast layout! Learn more

10-Day Weather Forecast

Advertisements
Track Severe Weather on mobile